Time;durP1;ratioP1;P1;durP2;ratioP2;P2;SDS_P1;SDS_P2;PMS_P1;PMS_P2;Temp;Humidity;BMP_temperature;BMP_pressure;BME280_temperature;BME280_humidity;BME280_pressure;Samples;Min_cycle;Max_cycle;Signal;HPM_P1;HPM_P2
2023/08/03 00:02:57;;;;;;;3.70;1.83;;;;;;;;;;4993490;28;20206;-85
2023/08/03 00:06:02;;;;;;;3.00;1.40;;;;;;;;;;4981820;28;20692;-85
2023/08/03 00:09:06;;;;;;;2.33;1.40;;;;;;;;;;4993617;28;20178;-85
2023/08/03 00:12:10;;;;;;;4.57;1.53;;;;;;;;;;4981806;28;20202;-85
2023/08/03 00:15:16;;;;;;;5.70;1.73;;;;;;;;;;4981850;28;20221;-85
2023/08/03 00:18:20;;;;;;;4.17;1.47;;;;;;;;;;4982302;28;20515;-85
2023/08/03 00:21:24;;;;;;;10.07;1.87;;;;;;;;;;4982101;28;20179;-85
2023/08/03 00:24:28;;;;;;;7.40;1.63;;;;;;;;;;4981909;28;20213;-85
2023/08/03 00:27:32;;;;;;;4.20;2.00;;;;;;;;;;4981999;28;20202;-85
2023/08/03 00:30:36;;;;;;;5.93;1.90;;;;;;;;;;4970919;28;20646;-85
2023/08/03 00:33:41;;;;;;;2.40;1.50;;;;;;;;;;4983104;28;20499;-85
2023/08/03 00:36:45;;;;;;;3.60;1.67;;;;;;;;;;4994690;28;20182;-85
2023/08/03 00:39:49;;;;;;;5.27;1.53;;;;;;;;;;4984401;28;20174;-85
2023/08/03 00:42:53;;;;;;;6.53;1.63;;;;;;;;;;5006147;28;20206;-85
2023/08/03 00:45:57;;;;;;;3.13;1.47;;;;;;;;;;4985239;28;20218;-85
2023/08/03 00:49:01;;;;;;;2.40;1.70;;;;;;;;;;4985278;28;20182;-85
2023/08/03 00:52:06;;;;;;;4.07;1.73;;;;;;;;;;4985043;28;20530;-85
2023/08/03 00:55:09;;;;;;;3.43;1.60;;;;;;;;;;4985272;28;20221;-85
2023/08/03 00:58:13;;;;;;;3.80;2.10;;;;;;;;;;4985332;28;20178;-85
2023/08/03 01:01:17;;;;;;;6.13;2.00;;;;;;;;;;4996397;28;20206;-85
2023/08/03 01:04:22;;;;;;;4.70;1.90;;;;;;;;;;4984735;28;20566;-85
2023/08/03 01:07:26;;;;;;;3.43;1.50;;;;;;;;;;4984977;28;20182;-86
2023/08/03 01:10:30;;;;;;;5.43;1.87;;;;;;;;;;4995917;28;20542;-86
2023/08/03 01:13:34;;;;;;;2.57;1.63;;;;;;;;;;4984728;28;20657;-86
2023/08/03 01:16:38;;;;;;;2.93;1.73;;;;;;;;;;4984885;28;20182;-86
2023/08/03 01:19:42;;;;;;;3.57;1.60;;;;;;;;;;4996093;28;20182;-86
2023/08/03 01:22:46;;;;;;;5.30;1.70;;;;;;;;;;4984567;28;20206;-86
2023/08/03 01:25:51;;;;;;;2.30;1.50;;;;;;;;;;4984479;28;20222;-86
2023/08/03 01:28:55;;;;;;;2.97;1.80;;;;;;;;;;4995645;28;20178;-86
2023/08/03 01:32:00;;;;;;;5.17;2.27;;;;;;;;;;4984274;28;20186;-86
2023/08/03 01:35:06;;;;;;;5.87;2.00;;;;;;;;;;4984548;28;20206;-86
2023/08/03 01:38:12;;;;;;;5.07;1.70;;;;;;;;;;4984311;28;20186;-86
2023/08/03 01:41:16;;;;;;;3.97;1.97;;;;;;;;;;4984413;28;20187;-86
2023/08/03 01:44:26;;;;;;;7.17;2.20;;;;;;;;;;4984075;28;20206;-86
2023/08/03 01:47:30;;;;;;;3.77;1.47;;;;;;;;;;4984151;28;20182;-86
2023/08/03 01:50:34;;;;;;;3.73;1.70;;;;;;;;;;4994939;28;20193;-86
2023/08/03 01:53:38;;;;;;;3.90;1.83;;;;;;;;;;4984091;28;20197;-86
2023/08/03 01:56:42;;;;;;;3.90;1.90;;;;;;;;;;4984287;28;20182;-86
2023/08/03 01:59:47;;;;;;;3.23;1.70;;;;;;;;;;4983948;28;20186;-86
2023/08/03 02:02:51;;;;;;;4.97;1.60;;;;;;;;;;4983882;28;20214;-86
2023/08/03 02:05:58;;;;;;;7.37;1.83;;;;;;;;;;4984208;28;20226;-86
2023/08/03 02:09:04;;;;;;;3.30;1.80;;;;;;;;;;4983996;28;20522;-86
2023/08/03 02:12:08;;;;;;;9.77;1.97;;;;;;;;;;4994899;28;20174;-86
2023/08/03 02:15:15;;;;;;;3.33;1.60;;;;;;;;;;4983615;28;20214;-86
2023/08/03 02:18:19;;;;;;;6.40;1.73;;;;;;;;;;4983664;28;20178;-86
2023/08/03 02:21:23;;;;;;;5.77;1.93;;;;;;;;;;4983724;28;20182;-86
2023/08/03 02:24:27;;;;;;;4.53;1.60;;;;;;;;;;4983559;28;20234;-86
2023/08/03 02:27:32;;;;;;;7.07;1.90;;;;;;;;;;4983782;28;20178;-86
2023/08/03 02:30:37;;;;;;;6.17;1.80;;;;;;;;;;5005400;28;20178;-86
2023/08/03 02:33:42;;;;;;;5.37;2.20;;;;;;;;;;4983446;28;20171;-86
2023/08/03 02:36:47;;;;;;;5.50;1.90;;;;;;;;;;4983824;28;20606;-86
2023/08/03 02:39:51;;;;;;;4.83;2.47;;;;;;;;;;4983676;28;20186;-86
2023/08/03 02:43:01;;;;;;;8.57;2.10;;;;;;;;;;4984052;28;20214;-86
2023/08/03 02:46:09;;;;;;;4.73;2.03;;;;;;;;;;4983334;28;20689;-86
2023/08/03 02:49:14;;;;;;;8.50;2.03;;;;;;;;;;4983060;28;20178;-86
2023/08/03 02:52:18;;;;;;;3.00;1.70;;;;;;;;;;4983042;28;20186;-86
2023/08/03 02:55:25;;;;;;;7.23;1.87;;;;;;;;;;4983034;28;20681;-86
2023/08/03 02:58:30;;;;;;;11.47;1.97;;;;;;;;;;4983324;28;20182;-86
2023/08/03 03:01:36;;;;;;;3.67;1.80;;;;;;;;;;4982623;28;20680;-86
2023/08/03 03:04:40;;;;;;;3.27;1.47;;;;;;;;;;4982308;28;20234;-85
2023/08/03 03:07:44;;;;;;;4.00;1.90;;;;;;;;;;4982132;28;20178;-86
2023/08/03 03:10:48;;;;;;;3.77;1.90;;;;;;;;;;4982715;28;20182;-86
2023/08/03 03:13:52;;;;;;;5.57;1.60;;;;;;;;;;4971589;28;20186;-86
2023/08/03 03:16:57;;;;;;;7.77;1.87;;;;;;;;;;4982673;28;20190;-86
2023/08/03 03:20:01;;;;;;;4.97;1.87;;;;;;;;;;4982643;28;20630;-86
2023/08/03 03:23:07;;;;;;;5.93;1.70;;;;;;;;;;4982594;28;20657;-86
2023/08/03 03:26:11;;;;;;;6.80;1.90;;;;;;;;;;4982289;28;20217;-86
2023/08/03 03:29:16;;;;;;;4.63;1.77;;;;;;;;;;4982320;28;20191;-86
2023/08/03 03:32:20;;;;;;;5.67;2.00;;;;;;;;;;4982487;28;20178;-86
2023/08/03 03:35:24;;;;;;;8.73;1.57;;;;;;;;;;4982393;28;20209;-85
2023/08/03 03:38:28;;;;;;;6.53;1.90;;;;;;;;;;4982130;28;20202;-86
2023/08/03 03:41:32;;;;;;;5.50;1.90;;;;;;;;;;4982016;28;20537;-86
2023/08/03 03:44:36;;;;;;;5.87;1.80;;;;;;;;;;4982304;28;20229;-85
2023/08/03 03:47:41;;;;;;;5.23;1.80;;;;;;;;;;4982596;28;20526;-86
2023/08/03 03:50:46;;;;;;;5.47;2.00;;;;;;;;;;4982429;28;20182;-86
2023/08/03 03:53:50;;;;;;;4.83;1.70;;;;;;;;;;4982206;28;20178;-86
2023/08/03 03:56:55;;;;;;;4.93;1.77;;;;;;;;;;4982644;28;20632;-86
2023/08/03 04:00:00;;;;;;;4.43;1.70;;;;;;;;;;4982049;28;20201;-86
2023/08/03 04:03:04;;;;;;;6.20;2.60;;;;;;;;;;5004183;28;20553;-86
2023/08/03 04:06:08;;;;;;;6.87;1.87;;;;;;;;;;4988416;28;20230;-83
2023/08/03 04:09:12;;;;;;;5.70;1.87;;;;;;;;;;5003793;28;20178;-83
2023/08/03 04:12:17;;;;;;;11.47;2.07;;;;;;;;;;5003572;28;20182;-83
2023/08/03 04:15:21;;;;;;;5.50;1.73;;;;;;;;;;4992027;28;20213;-83
2023/08/03 04:18:27;;;;;;;8.60;2.03;;;;;;;;;;4994697;28;20198;-83
2023/08/03 04:21:32;;;;;;;7.57;1.90;;;;;;;;;;4996294;28;20179;-83
2023/08/03 04:24:38;;;;;;;7.97;1.93;;;;;;;;;;5006720;28;20221;-83
2023/08/03 04:27:45;;;;;;;11.43;1.90;;;;;;;;;;4985876;28;20182;-83
2023/08/03 04:30:52;;;;;;;10.53;2.00;;;;;;;;;;4991627;28;20186;-81
2023/08/03 04:33:56;;;;;;;5.77;1.60;;;;;;;;;;4988280;28;20187;-81
2023/08/03 04:37:02;;;;;;;6.07;1.73;;;;;;;;;;4999095;28;20182;-81
2023/08/03 04:40:08;;;;;;;2.97;1.70;;;;;;;;;;4988926;28;20178;-81
2023/08/03 04:43:12;;;;;;;8.50;1.83;;;;;;;;;;4999243;28;20182;-82
2023/08/03 04:46:16;;;;;;;5.20;1.90;;;;;;;;;;4988411;28;20217;-82
2023/08/03 04:49:22;;;;;;;9.83;2.03;;;;;;;;;;4988206;28;20182;-81
2023/08/03 04:52:30;;;;;;;5.47;1.77;;;;;;;;;;4987330;28;20183;-85
2023/08/03 04:55:34;;;;;;;3.53;1.27;;;;;;;;;;4998167;28;20685;-81
2023/08/03 04:58:38;;;;;;;6.63;2.07;;;;;;;;;;4998146;28;20182;-81
2023/08/03 05:01:42;;;;;;;6.43;2.30;;;;;;;;;;4997598;28;20534;-80
2023/08/03 05:04:46;;;;;;;4.63;1.70;;;;;;;;;;4992833;28;20234;-82
2023/08/03 05:07:51;;;;;;;9.53;2.23;;;;;;;;;;4967057;28;20568;-82
2023/08/03 05:10:59;;;;;;;11.93;2.30;;;;;;;;;;4956970;28;20179;-81
2023/08/03 05:14:05;;;;;;;6.43;1.70;;;;;;;;;;4956495;28;20175;-82
2023/08/03 05:17:09;;;;;;;5.23;2.00;;;;;;;;;;4978321;28;20178;-82
2023/08/03 05:20:14;;;;;;;7.97;1.80;;;;;;;;;;4956788;28;20175;-82
2023/08/03 05:23:19;;;;;;;10.80;1.90;;;;;;;;;;4968448;28;20524;-82
2023/08/03 05:26:23;;;;;;;11.10;2.33;;;;;;;;;;4957138;28;20559;-82
2023/08/03 05:29:28;;;;;;;4.67;1.70;;;;;;;;;;4967192;28;20519;-81
2023/08/03 05:32:32;;;;;;;7.13;2.20;;;;;;;;;;4955882;28;20813;-81
2023/08/03 05:35:36;;;;;;;5.30;2.03;;;;;;;;;;4977331;28;20218;-82
2023/08/03 05:38:40;;;;;;;6.90;1.60;;;;;;;;;;4955605;28;20179;-82
2023/08/03 05:41:44;;;;;;;5.33;1.77;;;;;;;;;;4966553;28;20190;-81
2023/08/03 05:44:48;;;;;;;7.37;1.77;;;;;;;;;;4976176;28;20567;-82
2023/08/03 05:47:52;;;;;;;4.93;1.63;;;;;;;;;;4978094;28;20182;-82
2023/08/03 05:50:57;;;;;;;12.17;1.77;;;;;;;;;;4966690;28;20183;-82
2023/08/03 05:54:02;;;;;;;8.93;1.67;;;;;;;;;;4977852;28;20179;-82
2023/08/03 05:57:12;;;;;;;7.17;1.70;;;;;;;;;;4975473;28;20199;-81
2023/08/03 06:00:21;;;;;;;7.97;1.57;;;;;;;;;;4994072;28;20202;-81
2023/08/03 06:03:31;;;;;;;3.87;1.63;;;;;;;;;;4957850;28;20206;-82
2023/08/03 06:06:36;;;;;;;5.20;1.77;;;;;;;;;;4986152;28;20182;-82
2023/08/03 06:09:40;;;;;;;5.57;1.50;;;;;;;;;;4977963;28;20182;-82
2023/08/03 06:12:44;;;;;;;8.10;1.57;;;;;;;;;;4977678;28;20186;-83
2023/08/03 06:15:48;;;;;;;4.83;1.60;;;;;;;;;;5000571;28;20210;-83
2023/08/03 06:18:55;;;;;;;9.07;1.87;;;;;;;;;;4988228;28;20178;-83
2023/08/03 06:22:04;;;;;;;5.97;1.40;;;;;;;;;;4999551;28;20179;-82
2023/08/03 06:25:09;;;;;;;5.27;1.47;;;;;;;;;;4987873;28;20226;-83
2023/08/03 06:28:21;;;;;;;7.17;1.77;;;;;;;;;;5009863;28;20182;-83
2023/08/03 06:31:42;;;;;;;4.73;1.37;;;;;;;;;;5008584;28;20191;-83
2023/08/03 06:34:46;;;;;;;7.70;1.80;;;;;;;;;;4996644;28;20214;-83
2023/08/03 06:37:53;;;;;;;7.67;1.70;;;;;;;;;;4994315;28;20179;-84
2023/08/03 06:40:57;;;;;;;11.10;1.40;;;;;;;;;;4993341;28;20202;-82
2023/08/03 06:44:01;;;;;;;4.43;1.20;;;;;;;;;;4973590;28;20194;-83
2023/08/03 06:47:06;;;;;;;7.97;1.37;;;;;;;;;;4976790;28;20539;-83
2023/08/03 06:50:10;;;;;;;5.50;1.30;;;;;;;;;;4954184;28;20198;-83
2023/08/03 06:53:15;;;;;;;9.40;1.40;;;;;;;;;;4965655;28;20524;-83
2023/08/03 06:56:19;;;;;;;6.03;1.60;;;;;;;;;;4954212;28;20210;-83
2023/08/03 06:59:23;;;;;;;8.13;1.53;;;;;;;;;;4955076;28;20183;-83
2023/08/03 07:02:27;;;;;;;3.17;1.20;;;;;;;;;;4966455;28;20524;-83
2023/08/03 07:05:31;;;;;;;6.23;1.50;;;;;;;;;;4976021;28;20237;-82
2023/08/03 07:08:35;;;;;;;5.17;1.27;;;;;;;;;;4974793;28;20638;-82
2023/08/03 07:11:41;;;;;;;4.13;1.17;;;;;;;;;;4984819;28;20233;-82
2023/08/03 07:14:46;;;;;;;5.00;1.17;;;;;;;;;;4996229;28;20214;-82
2023/08/03 07:17:51;;;;;;;2.80;0.90;;;;;;;;;;4989719;28;20195;-82
2023/08/03 07:20:55;;;;;;;3.17;1.00;;;;;;;;;;4975615;28;20670;-82
2023/08/03 07:24:00;;;;;;;4.47;0.87;;;;;;;;;;4971832;28;20201;-83
2023/08/03 07:27:05;;;;;;;8.27;1.30;;;;;;;;;;4986018;28;20522;-82
2023/08/03 07:30:09;;;;;;;3.73;1.00;;;;;;;;;;4992243;28;20199;-82
2023/08/03 07:33:14;;;;;;;2.97;1.20;;;;;;;;;;4985363;28;20194;-83
2023/08/03 07:36:18;;;;;;;3.90;1.37;;;;;;;;;;4982768;28;20217;-83
2023/08/03 07:39:23;;;;;;;3.77;1.13;;;;;;;;;;4981540;28;20198;-83
2023/08/03 07:42:27;;;;;;;5.30;0.90;;;;;;;;;;4968414;28;20178;-83
2023/08/03 07:45:31;;;;;;;2.93;1.30;;;;;;;;;;4978800;28;20570;-82
2023/08/03 07:48:35;;;;;;;4.97;0.97;;;;;;;;;;4967395;28;20174;-82
2023/08/03 07:51:40;;;;;;;6.77;1.40;;;;;;;;;;4955580;28;20179;-82
2023/08/03 07:54:44;;;;;;;4.83;1.10;;;;;;;;;;4971291;28;20210;-82
2023/08/03 07:57:48;;;;;;;3.50;1.17;;;;;;;;;;4985512;28;20178;-83
2023/08/03 08:00:52;;;;;;;3.63;0.90;;;;;;;;;;4961386;28;20187;-83
2023/08/03 08:03:57;;;;;;;6.20;1.30;;;;;;;;;;4972601;28;20179;-82
2023/08/03 08:07:02;;;;;;;3.53;1.33;;;;;;;;;;4960597;28;20180;-82
2023/08/03 08:10:06;;;;;;;2.90;1.00;;;;;;;;;;4982698;28;20183;-83
2023/08/03 08:13:10;;;;;;;4.27;1.00;;;;;;;;;;4983867;28;20180;-82
2023/08/03 08:16:16;;;;;;;2.33;0.87;;;;;;;;;;4982707;28;20560;-82
2023/08/03 08:19:20;;;;;;;3.27;1.03;;;;;;;;;;4983022;28;20187;-83
2023/08/03 08:22:24;;;;;;;6.10;1.13;;;;;;;;;;4960775;28;20183;-83
2023/08/03 08:25:33;;;;;;;3.40;0.90;;;;;;;;;;4961531;28;20222;-83
2023/08/03 08:28:38;;;;;;;2.23;0.80;;;;;;;;;;4960295;28;20181;-83
2023/08/03 08:31:43;;;;;;;3.50;1.37;;;;;;;;;;4960371;28;20537;-83
2023/08/03 08:34:47;;;;;;;3.77;1.10;;;;;;;;;;4971281;28;20212;-83
2023/08/03 08:37:51;;;;;;;3.17;0.90;;;;;;;;;;4970528;28;20190;-83
2023/08/03 08:40:56;;;;;;;2.80;0.93;;;;;;;;;;4970199;28;20185;-83
2023/08/03 08:44:00;;;;;;;2.72;0.80;;;;;;;;;;4970198;28;20183;-83
2023/08/03 08:47:06;;;;;;;2.88;0.98;;;;;;;;;;4958932;28;20529;-83
2023/08/03 08:50:10;;;;;;;1.85;0.63;;;;;;;;;;4992270;28;20180;-83
2023/08/03 08:53:15;;;;;;;2.70;0.77;;;;;;;;;;4969499;28;20642;-83
2023/08/03 08:56:19;;;;;;;2.40;0.80;;;;;;;;;;4959364;28;20211;-83
2023/08/03 08:59:23;;;;;;;5.18;0.77;;;;;;;;;;4969484;28;20180;-83
2023/08/03 09:02:27;;;;;;;1.88;0.52;;;;;;;;;;4959213;28;20181;-83
2023/08/03 09:05:33;;;;;;;3.83;0.70;;;;;;;;;;4969704;28;20234;-83
2023/08/03 09:08:55;;;;;;;3.45;0.60;;;;;;;;;;4981824;28;20181;-83
2023/08/03 09:11:59;;;;;;;2.75;0.68;;;;;;;;;;4982289;28;20183;-83
2023/08/03 09:15:03;;;;;;;1.73;0.57;;;;;;;;;;4981473;28;20562;-83
2023/08/03 09:18:08;;;;;;;2.88;0.70;;;;;;;;;;4959533;28;20181;-83
2023/08/03 09:21:17;;;;;;;1.95;0.77;;;;;;;;;;4970057;28;20185;-83
2023/08/03 09:24:22;;;;;;;2.70;0.70;;;;;;;;;;4981251;28;20187;-83
2023/08/03 09:27:26;;;;;;;3.67;0.80;;;;;;;;;;4970526;28;20180;-83
2023/08/03 09:30:46;;;;;;;2.60;0.70;;;;;;;;;;4970294;28;20523;-83
2023/08/03 09:33:55;;;;;;;2.90;0.60;;;;;;;;;;4980054;28;20522;-83
2023/08/03 09:36:59;;;;;;;2.13;0.60;;;;;;;;;;4969841;28;20521;-83
2023/08/03 09:40:05;;;;;;;1.58;0.50;;;;;;;;;;4980696;28;20206;-83
2023/08/03 09:43:12;;;;;;;3.85;0.77;;;;;;;;;;4969278;28;20186;-83
2023/08/03 09:46:16;;;;;;;1.48;0.65;;;;;;;;;;4980037;28;20225;-83
2023/08/03 09:49:20;;;;;;;1.02;0.50;;;;;;;;;;4968815;28;20207;-83
2023/08/03 09:52:27;;;;;;;1.33;0.70;;;;;;;;;;4991786;28;20186;-83
2023/08/03 09:55:33;;;;;;;1.80;0.63;;;;;;;;;;4968183;28;20563;-83
2023/08/03 09:58:44;;;;;;;2.13;0.70;;;;;;;;;;4968972;28;20185;-83
2023/08/03 10:01:49;;;;;;;0.63;0.40;;;;;;;;;;4969051;28;20186;-83
2023/08/03 10:04:59;;;;;;;2.60;0.70;;;;;;;;;;4979484;28;20228;-83
2023/08/03 10:08:10;;;;;;;2.55;0.50;;;;;;;;;;4966457;28;20202;-83
2023/08/03 10:11:14;;;;;;;3.75;0.40;;;;;;;;;;4976556;28;20182;-83
2023/08/03 10:14:25;;;;;;;1.75;0.52;;;;;;;;;;4976798;28;20184;-83
2023/08/03 10:17:30;;;;;;;6.57;0.70;;;;;;;;;;4955165;28;20195;-83
2023/08/03 10:20:35;;;;;;;3.72;0.40;;;;;;;;;;4966000;28;20179;-83
2023/08/03 10:23:39;;;;;;;4.95;0.50;;;;;;;;;;4965565;28;20203;-83
2023/08/03 10:26:48;;;;;;;2.80;0.40;;;;;;;;;;4966024;28;20622;-83
2023/08/03 10:29:54;;;;;;;1.05;0.50;;;;;;;;;;4965999;28;20190;-83
2023/08/03 10:32:58;;;;;;;2.15;0.50;;;;;;;;;;4976872;28;20179;-83
2023/08/03 10:36:02;;;;;;;3.22;0.70;;;;;;;;;;4954453;28;20209;-83
2023/08/03 10:39:14;;;;;;;9.75;1.10;;;;;;;;;;4965303;28;20179;-83
2023/08/03 10:42:22;;;;;;;4.72;0.55;;;;;;;;;;4965794;28;20205;-83
2023/08/03 10:45:27;;;;;;;0.70;0.40;;;;;;;;;;4976903;28;20236;-83
2023/08/03 10:48:33;;;;;;;2.53;0.40;;;;;;;;;;4966174;28;20200;-83
2023/08/03 10:51:38;;;;;;;1.33;0.60;;;;;;;;;;4967856;28;20527;-84
2023/08/03 10:54:43;;;;;;;1.33;0.50;;;;;;;;;;4955598;28;20214;-83
2023/08/03 10:57:47;;;;;;;0.82;0.40;;;;;;;;;;4970270;28;20176;-83
2023/08/03 11:00:51;;;;;;;1.13;0.40;;;;;;;;;;4954427;28;20524;-83
2023/08/03 11:03:55;;;;;;;2.00;0.50;;;;;;;;;;4975474;28;20190;-83
2023/08/03 11:07:00;;;;;;;1.30;0.47;;;;;;;;;;4953993;28;20210;-83
2023/08/03 11:10:06;;;;;;;1.45;0.35;;;;;;;;;;4976115;28;20530;-83
2023/08/03 11:13:11;;;;;;;2.47;0.32;;;;;;;;;;4953715;28;20634;-83
2023/08/03 11:16:15;;;;;;;3.08;0.65;;;;;;;;;;4964042;28;20214;-83
2023/08/03 11:19:22;;;;;;;2.35;0.50;;;;;;;;;;4975594;28;20181;-83
2023/08/03 11:22:26;;;;;;;2.75;0.57;;;;;;;;;;4964793;28;20194;-83
2023/08/03 11:25:31;;;;;;;0.88;0.38;;;;;;;;;;4953302;28;20217;-83
2023/08/03 11:28:40;;;;;;;2.03;0.50;;;;;;;;;;4975301;28;20182;-83
2023/08/03 11:31:44;;;;;;;2.75;0.50;;;;;;;;;;4964553;28;20187;-83
2023/08/03 11:34:48;;;;;;;2.35;0.40;;;;;;;;;;4964166;28;20222;-83
2023/08/03 11:37:53;;;;;;;2.20;0.45;;;;;;;;;;4953166;28;20175;-84
2023/08/03 11:40:57;;;;;;;3.38;0.80;;;;;;;;;;4953100;28;20175;-84
2023/08/03 11:44:01;;;;;;;4.50;0.57;;;;;;;;;;4964193;28;20635;-84
2023/08/03 11:47:07;;;;;;;3.38;0.60;;;;;;;;;;4964424;28;20203;-83
2023/08/03 11:50:12;;;;;;;1.88;0.60;;;;;;;;;;4952883;28;20182;-83
2023/08/03 11:53:24;;;;;;;1.67;0.68;;;;;;;;;;4952718;28;20187;-83
2023/08/03 11:56:29;;;;;;;2.30;0.60;;;;;;;;;;4963811;28;20210;-84
2023/08/03 11:59:35;;;;;;;3.65;0.50;;;;;;;;;;4952747;28;20650;-83
2023/08/03 12:02:41;;;;;;;1.23;0.50;;;;;;;;;;4953020;28;20183;-83
2023/08/03 12:05:51;;;;;;;4.60;0.40;;;;;;;;;;4974312;28;20223;-83
2023/08/03 12:08:56;;;;;;;1.00;0.32;;;;;;;;;;4964376;28;20180;-83
2023/08/03 12:12:04;;;;;;;1.45;0.40;;;;;;;;;;4964378;28;20183;-83
2023/08/03 12:15:09;;;;;;;2.47;0.50;;;;;;;;;;4952766;28;20554;-83
2023/08/03 12:18:13;;;;;;;1.02;0.40;;;;;;;;;;4963828;28;20638;-83
2023/08/03 12:21:17;;;;;;;2.25;0.60;;;;;;;;;;4963932;28;20177;-83
2023/08/03 12:24:22;;;;;;;4.20;0.70;;;;;;;;;;4963753;28;20670;-83
2023/08/03 12:27:26;;;;;;;1.20;0.47;;;;;;;;;;4964831;28;20207;-84
2023/08/03 12:30:31;;;;;;;0.63;0.47;;;;;;;;;;4953393;28;20530;-83
2023/08/03 12:33:35;;;;;;;1.92;0.50;;;;;;;;;;4964614;28;20191;-83
2023/08/03 12:36:39;;;;;;;0.82;0.38;;;;;;;;;;4953333;28;20183;-83
2023/08/03 12:39:43;;;;;;;1.02;0.50;;;;;;;;;;4955427;28;20189;-83
2023/08/03 12:42:48;;;;;;;1.55;0.50;;;;;;;;;;4967554;28;20181;-83
2023/08/03 12:45:52;;;;;;;3.47;0.60;;;;;;;;;;4967288;28;20222;-83
2023/08/03 12:48:58;;;;;;;1.45;0.40;;;;;;;;;;4966986;28;20197;-83
2023/08/03 12:52:02;;;;;;;1.35;0.40;;;;;;;;;;4978636;28;20183;-83
2023/08/03 12:55:07;;;;;;;0.88;0.55;;;;;;;;;;4978241;28;20217;-83
2023/08/03 12:58:11;;;;;;;2.30;0.47;;;;;;;;;;4967587;28;20203;-83
2023/08/03 13:01:16;;;;;;;0.80;0.40;;;;;;;;;;4979664;28;20198;-83
2023/08/03 13:04:20;;;;;;;1.42;0.40;;;;;;;;;;4977846;28;20195;-83
2023/08/03 13:07:23;;;;;;;1.52;0.55;;;;;;;;;;4967954;28;20211;-83
2023/08/03 13:10:27;;;;;;;2.45;0.55;;;;;;;;;;4967214;28;20199;-83
2023/08/03 13:13:32;;;;;;;0.70;0.50;;;;;;;;;;4977709;28;20194;-83
2023/08/03 13:16:36;;;;;;;1.55;0.57;;;;;;;;;;4955793;28;20180;-83
2023/08/03 13:19:40;;;;;;;0.82;0.50;;;;;;;;;;4978033;28;20175;-83
2023/08/03 13:22:44;;;;;;;2.22;0.60;;;;;;;;;;4967680;28;20187;-83
2023/08/03 13:25:49;;;;;;;3.50;0.50;;;;;;;;;;4967299;28;20685;-83
2023/08/03 13:28:53;;;;;;;1.52;0.50;;;;;;;;;;4967095;28;20657;-83
2023/08/03 13:31:57;;;;;;;2.58;0.40;;;;;;;;;;4956720;28;20198;-83
2023/08/03 13:35:01;;;;;;;0.55;0.40;;;;;;;;;;4967569;28;20218;-84
2023/08/03 13:38:05;;;;;;;1.23;0.40;;;;;;;;;;4967773;28;20184;-84
2023/08/03 13:41:09;;;;;;;1.17;0.40;;;;;;;;;;4955717;28;20181;-83
2023/08/03 13:44:13;;;;;;;1.73;0.40;;;;;;;;;;4967512;28;20196;-83
2023/08/03 13:47:18;;;;;;;0.90;0.50;;;;;;;;;;4967031;28;20226;-83
2023/08/03 13:50:22;;;;;;;1.90;0.68;;;;;;;;;;4977146;28;20206;-83
2023/08/03 13:53:26;;;;;;;1.20;0.40;;;;;;;;;;4978149;28;20187;-83
2023/08/03 13:56:30;;;;;;;0.35;0.35;;;;;;;;;;4978091;28;20218;-84
2023/08/03 13:59:34;;;;;;;1.73;0.43;;;;;;;;;;4978171;28;20199;-83
2023/08/03 14:02:38;;;;;;;2.35;0.38;;;;;;;;;;4978971;28;20182;-83
2023/08/03 14:05:43;;;;;;;2.30;0.30;;;;;;;;;;4977598;28;20225;-83
2023/08/03 14:08:47;;;;;;;0.35;0.30;;;;;;;;;;4966924;28;20179;-83
2023/08/03 14:11:52;;;;;;;1.33;0.55;;;;;;;;;;4955070;28;20179;-84
2023/08/03 14:14:56;;;;;;;0.68;0.47;;;;;;;;;;4965827;28;20219;-84
2023/08/03 14:18:00;;;;;;;3.08;0.40;;;;;;;;;;4976579;28;20179;-84
2023/08/03 14:21:05;;;;;;;3.28;0.70;;;;;;;;;;4965635;28;20654;-83
2023/08/03 14:24:09;;;;;;;1.35;0.40;;;;;;;;;;4977011;28;20194;-83
2023/08/03 14:27:13;;;;;;;1.77;0.40;;;;;;;;;;4954855;28;20215;-83
2023/08/03 14:30:17;;;;;;;5.10;0.68;;;;;;;;;;4977003;28;20179;-83
2023/08/03 14:33:21;;;;;;;2.80;0.63;;;;;;;;;;4955548;28;20194;-83
2023/08/03 14:36:26;;;;;;;1.17;0.50;;;;;;;;;;4965415;28;20229;-83
2023/08/03 14:39:30;;;;;;;1.48;0.57;;;;;;;;;;4965984;28;20203;-84
2023/08/03 14:42:34;;;;;;;1.65;0.60;;;;;;;;;;4976281;28;20198;-83
2023/08/03 14:45:38;;;;;;;1.05;0.43;;;;;;;;;;4954364;28;20214;-83
2023/08/03 14:48:43;;;;;;;2.10;0.30;;;;;;;;;;4954733;28;20214;-84
2023/08/03 14:51:47;;;;;;;1.55;0.50;;;;;;;;;;4977297;28;20202;-84
2023/08/03 14:54:51;;;;;;;0.90;0.40;;;;;;;;;;4954326;28;20682;-83
2023/08/03 14:57:55;;;;;;;1.42;0.30;;;;;;;;;;4965383;28;20387;-83
2023/08/03 15:01:07;;;;;;;2.00;0.40;;;;;;;;;;4965471;28;20195;-84
2023/08/03 15:04:11;;;;;;;0.40;0.38;;;;;;;;;;4953994;28;20646;-84
2023/08/03 15:07:16;;;;;;;3.83;0.70;;;;;;;;;;4965429;28;20210;-83
2023/08/03 15:10:19;;;;;;;1.15;0.50;;;;;;;;;;4965272;28;20183;-83
2023/08/03 15:13:24;;;;;;;1.60;0.45;;;;;;;;;;4965406;28;20183;-83
2023/08/03 15:16:32;;;;;;;2.47;0.50;;;;;;;;;;4966594;28;20572;-83
2023/08/03 15:19:36;;;;;;;1.95;0.50;;;;;;;;;;4965160;28;20185;-84
2023/08/03 15:22:40;;;;;;;0.90;0.40;;;;;;;;;;4966232;28;20183;-83
2023/08/03 15:25:44;;;;;;;0.55;0.40;;;;;;;;;;4977250;28;20210;-83
2023/08/03 15:28:48;;;;;;;1.05;0.40;;;;;;;;;;4965695;28;20206;-84
2023/08/03 15:31:52;;;;;;;1.92;0.65;;;;;;;;;;4976502;28;20178;-83
2023/08/03 15:34:59;;;;;;;1.17;0.50;;;;;;;;;;4954339;28;20709;-83
2023/08/03 15:38:04;;;;;;;0.88;0.45;;;;;;;;;;4977368;28;20194;-83
2023/08/03 15:41:08;;;;;;;1.67;0.40;;;;;;;;;;4954673;28;20185;-84
2023/08/03 15:44:12;;;;;;;1.40;0.50;;;;;;;;;;4965612;28;20206;-83
2023/08/03 15:47:16;;;;;;;1.70;0.60;;;;;;;;;;4976664;28;20251;-83
2023/08/03 15:50:21;;;;;;;1.33;0.60;;;;;;;;;;4955071;28;20178;-83
2023/08/03 15:53:26;;;;;;;1.35;0.57;;;;;;;;;;4965903;28;20666;-83
2023/08/03 15:56:31;;;;;;;0.75;0.43;;;;;;;;;;4966146;28;20680;-83
2023/08/03 15:59:36;;;;;;;0.63;0.40;;;;;;;;;;4964761;28;20644;-83
2023/08/03 16:02:40;;;;;;;1.35;0.60;;;;;;;;;;4967974;28;20182;-83
2023/08/03 16:05:46;;;;;;;2.28;0.60;;;;;;;;;;4977697;28;20233;-85
2023/08/03 16:08:50;;;;;;;4.03;0.75;;;;;;;;;;4954771;28;20220;-85
2023/08/03 16:12:47;;;;;;;0.68;0.40;;;;;;;;;;4967191;28;20190;-87
2023/08/03 16:16:03;;;;;;;2.38;0.70;;;;;;;;;;4963942;28;20216;-81
2023/08/03 16:19:07;;;;;;;1.67;0.50;;;;;;;;;;4998530;28;20184;-80
2023/08/03 16:22:11;;;;;;;2.70;0.60;;;;;;;;;;4984541;28;20180;-84
2023/08/03 16:25:15;;;;;;;0.88;0.50;;;;;;;;;;4957455;28;20567;-84
2023/08/03 16:28:19;;;;;;;1.90;0.50;;;;;;;;;;4969070;28;20563;-84
2023/08/03 16:31:23;;;;;;;1.15;0.52;;;;;;;;;;4969042;28;20199;-84
2023/08/03 16:34:27;;;;;;;2.75;0.45;;;;;;;;;;4969019;28;20185;-85
2023/08/03 16:37:32;;;;;;;3.78;0.50;;;;;;;;;;4968460;28;20175;-84
2023/08/03 16:40:36;;;;;;;1.88;0.55;;;;;;;;;;4957391;28;20679;-84
2023/08/03 16:43:41;;;;;;;2.67;0.50;;;;;;;;;;4969213;28;20175;-84
2023/08/03 16:46:45;;;;;;;0.93;0.60;;;;;;;;;;4978654;28;20180;-84
2023/08/03 16:49:50;;;;;;;1.42;0.57;;;;;;;;;;4956416;28;20177;-84
2023/08/03 16:52:54;;;;;;;1.23;0.60;;;;;;;;;;4967346;28;20184;-84
2023/08/03 16:55:58;;;;;;;1.47;0.40;;;;;;;;;;4979278;28;20213;-84
2023/08/03 16:59:03;;;;;;;3.90;0.70;;;;;;;;;;4968068;28;20177;-84
2023/08/03 17:02:09;;;;;;;1.10;0.50;;;;;;;;;;4968420;28;20185;-84
2023/08/03 17:05:15;;;;;;;1.10;0.50;;;;;;;;;;4979409;28;20569;-84
2023/08/03 17:08:20;;;;;;;1.30;0.60;;;;;;;;;;4967503;28;20206;-84
2023/08/03 17:11:25;;;;;;;1.97;0.60;;;;;;;;;;4967490;28;20182;-84
2023/08/03 17:14:30;;;;;;;1.43;0.57;;;;;;;;;;4968008;28;20217;-84
2023/08/03 17:17:34;;;;;;;2.30;0.50;;;;;;;;;;4956419;28;20177;-84
2023/08/03 17:20:39;;;;;;;2.47;0.70;;;;;;;;;;4967474;28;20548;-84
2023/08/03 17:23:43;;;;;;;1.90;0.93;;;;;;;;;;4956609;28;20199;-84
2023/08/03 17:26:48;;;;;;;0.80;0.57;;;;;;;;;;4956238;28;20207;-85
2023/08/03 17:29:52;;;;;;;1.50;0.63;;;;;;;;;;4967929;28;20181;-85
2023/08/03 17:32:57;;;;;;;2.27;0.60;;;;;;;;;;4967873;28;20701;-85
2023/08/03 17:36:10;;;;;;;1.33;0.60;;;;;;;;;;4956536;28;20219;-84
2023/08/03 17:39:14;;;;;;;1.80;0.53;;;;;;;;;;4956829;28;20180;-84
2023/08/03 17:42:18;;;;;;;1.47;0.60;;;;;;;;;;4967601;28;20208;-85
2023/08/03 17:45:22;;;;;;;1.07;0.60;;;;;;;;;;4956396;28;20558;-84
2023/08/03 17:48:26;;;;;;;0.87;0.60;;;;;;;;;;4989510;28;20218;-84
2023/08/03 17:51:30;;;;;;;5.00;0.70;;;;;;;;;;4967527;28;20183;-84
2023/08/03 17:54:35;;;;;;;0.77;0.47;;;;;;;;;;4967640;28;20220;-84
2023/08/03 17:57:42;;;;;;;1.17;0.57;;;;;;;;;;4967950;28;20183;-84
2023/08/03 18:00:46;;;;;;;2.30;0.83;;;;;;;;;;4967046;28;20553;-84
2023/08/03 18:03:52;;;;;;;5.20;1.03;;;;;;;;;;4956324;28;20185;-84
2023/08/03 18:06:56;;;;;;;2.20;0.57;;;;;;;;;;4966976;28;20181;-84
2023/08/03 18:10:01;;;;;;;5.53;0.70;;;;;;;;;;4956325;28;20501;-84
2023/08/03 18:13:05;;;;;;;0.90;0.60;;;;;;;;;;4956190;28;20183;-84
2023/08/03 18:16:11;;;;;;;1.43;0.50;;;;;;;;;;4967694;28;20215;-84
2023/08/03 18:19:15;;;;;;;4.37;0.70;;;;;;;;;;4967142;28;20172;-84
2023/08/03 18:22:20;;;;;;;2.30;0.50;;;;;;;;;;4967208;28;20199;-84
2023/08/03 18:25:24;;;;;;;1.97;0.53;;;;;;;;;;4979012;28;20210;-84
2023/08/03 18:28:29;;;;;;;2.43;0.60;;;;;;;;;;4967916;28;20202;-84
2023/08/03 18:31:33;;;;;;;1.40;0.70;;;;;;;;;;4956399;28;20178;-84